Latest Weather Observations for Blackall

IDQ60801

Issued at 11:32 am EST Friday 29 July 2016 (issued every 30 minutes, with the page automatically refreshed every 10 minutes)

About weather observations | Map of weather stations | Latest weather observations for QLD | Other Formats
Station Details ID: 036034 Name: BLACKALL AIRPORT Lat: -24.43 Lon: 145.43 Height: 281.3 m
Data from the previous 72 hours. | See also: Recent months at Blackall
Date/Time
EST
Temp
°C
App
Temp
°C
Dew
Point
°C
Rel
Hum
%
Delta-T
°C
Wind Press
QNH
hPa
Press
MSL
hPa
Rain since
9am
mm
Dir  Spd
km/h
Gust
km/h
Spd
kts
Gust
kts
29/11:30am 17.3 13.7 4.9 44 6.0 SSE 13 17 7 9 1023.7 1023.5 0.0
29/11:00am 16.5 13.8 5.5 48 5.3 SSE 9 19 5 10 1024.2 1024.0 0.0
29/10:30am 16.1 13.3 6.8 54 4.6 ESE 11 19 6 10 1024.2 1024.0 0.0
29/10:00am 14.6 11.1 5.4 54 4.4 ESE 13 19 7 10 1024.3 1024.1 0.0
29/09:30am 13.4 9.5 5.3 58 3.8 ESE 15 20 8 11 1024.5 1024.3 0.0
29/09:00am 11.5 7.7 5.6 67 2.8 SE 15 20 8 11 1024.4 1024.2 0.0
29/08:30am 9.4 6.2 5.0 74 2.0 ESE 11 17 6 9 1024.5 1024.3 0.0
29/08:00am 7.4 5.1 4.7 83 1.2 SE 6 7 3 4 1024.4 1024.2 0.0
29/07:30am 4.8 2.3 3.5 91 0.5 ESE 6 6 3 3 1024.2 1024.0 0.0
29/07:00am 4.1 1.3 2.3 88 0.7 S 6 9 3 5 1023.8 1023.6 0.0
29/06:30am 5.0 2.4 3.2 88 0.8 SSE 6 7 3 4 1023.5 1023.3 0.0
29/06:00am 5.4 2.2 3.3 86 0.9 SSE 9 11 5 6 1023.1 1022.9 0.0
29/05:30am 5.5 2.3 3.2 85 1.0 SE 9 11 5 6 1022.9 1022.7 0.0
29/05:00am 5.9 2.4 3.6 85 1.0 SE 11 13 6 7 1022.7 1022.4 0.0
29/04:30am 6.5 3.0 3.7 82 1.2 SSE 11 13 6 7 1022.8 1022.5 0.0
29/04:00am 6.7 2.9 3.7 81 1.3 SSE 13 15 7 8 1022.8 1022.5 0.0
29/03:30am 7.1 3.7 3.9 80 1.4 SSE 11 13 6 7 1022.7 1022.4 0.0
29/03:00am 7.3 3.9 4.1 80 1.4 S 11 15 6 8 1023.0 1022.8 0.0
29/02:30am 7.3 4.2 3.7 78 1.6 S 9 11 5 6 1023.0 1022.8 0.0
29/02:00am 7.8 4.7 3.8 76 1.7 SSE 9 11 5 6 1023.2 1023.0 0.0
29/01:30am 8.3 5.2 3.8 73 2.0 SSE 9 13 5 7 1023.4 1023.2 0.0
29/01:00am 9.0 5.9 3.8 70 2.3 SSE 9 13 5 7 1023.6 1023.4 0.0
29/12:30am 9.4 6.4 4.2 70 2.3 SSE 9 15 5 8 1023.6 1023.4 0.0
29/12:00am 10.2 6.5 4.4 67 2.6 SE 13 17 7 9 1023.5 1023.3 0.0
 
Date/Time
EST
Temp
°C
App
Temp
°C
Dew
Point
°C
Rel
Hum
%
Delta-T
°C
Wind Press
QNH
hPa
Press
MSL
hPa
Rain since
9am
mm
Dir  Spd
km/h
Gust
km/h
Spd
kts
Gust
kts
28/11:30pm 9.9 6.2 4.3 68 2.5 SE 13 15 7 8 1023.4 1023.2 0.0
28/11:00pm 10.5 6.8 4.4 66 2.8 SE 13 17 7 9 1023.6 1023.4 0.0
28/10:30pm 11.0 7.7 4.5 64 3.0 SE 11 17 6 9 1023.7 1023.5 0.0
28/10:00pm 11.5 8.2 4.5 62 3.2 SE 11 13 6 7 1023.9 1023.7 0.0
28/09:30pm 12.3 8.7 4.8 60 3.5 SE 13 19 7 10 1024.1 1023.9 0.0
28/09:00pm 12.8 9.2 5.0 59 3.6 SSE 13 17 7 9 1024.2 1024.0 0.0
28/08:30pm 13.7 10.0 4.6 54 4.3 SSE 13 17 7 9 1024.0 1023.8 0.0
28/08:00pm 14.1 10.4 4.7 53 4.4 SSE 13 17 7 9 1024.0 1023.8 0.0
28/07:30pm 14.1 10.8 4.7 53 4.4 SSE 11 15 6 8 1023.8 1023.6 0.0
28/07:00pm 14.9 11.7 4.9 51 4.7 SSE 11 17 6 9 1023.5 1023.3 0.0
28/06:30pm 15.1 11.8 4.8 50 4.9 SSE 11 15 6 8 1023.3 1023.1 0.0
28/06:00pm 16.1 12.8 4.5 46 5.5 SSE 11 15 6 8 1022.9 1022.7 0.0
28/05:30pm 18.2 14.5 4.4 40 6.7 SSE 13 20 7 11 1022.6 1022.3 0.0
28/05:00pm 19.2 14.7 4.2 37 7.2 SSE 17 22 9 12 1022.7 1022.4 0.0
28/04:30pm 19.8 14.7 4.3 36 7.6 SSE 20 28 11 15 1022.6 1022.3 0.0
28/04:00pm 20.1 15.7 4.6 36 7.6 S 17 24 9 13 1022.4 1022.1 0.0
28/03:30pm 20.1 15.1 4.6 36 7.6 SSE 20 26 11 14 1022.3 1022.0 0.0
28/03:00pm 20.1 15.5 5.7 39 7.2 SSE 19 28 10 15 1022.1 1021.8 0.0
28/02:30pm 19.8 15.1 5.1 38 7.3 SSE 19 30 10 16 1022.3 1022.0 0.0
28/02:00pm 19.6 14.6 4.5 37 7.3 SSE 20 30 11 16 1022.5 1022.2 0.0
28/01:30pm 19.4 14.8 5.8 41 6.8 SSE 19 28 10 15 1022.7 1022.4 0.0
28/01:00pm 18.8 14.0 5.6 42 6.5 SSE 20 32 11 17 1023.2 1023.0 0.0
28/12:30pm 18.2 13.6 5.4 43 6.3 SE 19 30 10 16 1023.6 1023.4 0.0
28/12:00pm 17.6 12.8 5.5 45 5.9 SE 20 28 11 15 1024.2 1024.0 0.0
28/11:30am 16.8 11.6 5.7 48 5.4 ESE 22 28 12 15 1025.1 1024.9 0.0
28/11:00am 16.4 10.7 5.1 47 5.4 ESE 24 35 13 19 1025.5 1025.2 0.0
28/10:30am 16.1 10.9 5.7 50 5.1 ESE 22 32 12 17 1025.6 1025.3 0.0
28/10:00am 15.0 8.6 5.2 52 4.7 ESE 28 33 15 18 1025.9 1025.6 0.0
28/09:30am 13.9 8.6 4.8 54 4.3 SE 22 33 12 18 1026.3 1026.1 0.0
28/09:00am 11.8 8.0 5.7 66 2.9 SE 15 22 8 12 1026.3 1026.1 0.0
28/08:30am 9.8 5.4 4.6 70 2.4 SSE 17 24 9 13 1026.2 1026.0 0.0
28/08:00am 8.1 4.8 4.7 79 1.5 SSE 11 15 6 8 1025.9 1025.6 0.0
28/07:30am 5.8 2.7 3.5 85 1.0 SSE 9 13 5 7 1025.6 1025.3 0.0
28/07:00am 5.2 1.9 2.7 84 1.0 SSE 9 11 5 6 1025.6 1025.3 0.0
28/06:30am 5.5 2.3 2.8 83 1.1 SSE 9 13 5 7 1025.1 1024.9 0.0
28/06:00am 5.8 2.6 3.0 82 1.2 SSE 9 11 5 6 1024.8 1024.6 0.0
28/05:30am 5.8 2.9 2.8 81 1.3 SSE 7 7 4 4 1024.8 1024.6 0.0
28/05:00am 6.0 2.8 3.0 81 1.3 SSE 9 9 5 5 1024.7 1024.5 0.0
28/04:30am 6.4 3.2 3.0 79 1.4 SSE 9 11 5 6 1024.4 1024.2 0.0
28/04:00am 7.2 4.6 3.3 76 1.7 SSE 6 9 3 5 1024.3 1024.1 0.0
28/03:30am 7.4 4.6 3.1 74 1.8 SSE 7 9 4 5 1024.4 1024.2 0.0
28/03:00am 7.8 4.6 3.3 73 1.9 SSE 9 11 5 6 1024.4 1024.2 0.0
28/02:30am 8.1 4.6 3.4 72 2.0 SSE 11 13 6 7 1024.3 1024.1 0.0
28/02:00am 8.3 5.2 3.4 71 2.1 S 9 11 5 6 1024.5 1024.3 0.0
28/01:30am 8.4 5.3 3.5 71 2.1 S 9 9 5 5 1024.5 1024.3 0.0
28/01:00am 8.8 5.7 3.6 70 2.3 SSE 9 9 5 5 1024.5 1024.3 0.0
28/12:30am 9.3 6.2 3.7 68 2.5 S 9 11 5 6 1024.5 1024.3 0.0
28/12:00am 9.1 5.6 3.5 68 2.4 SSE 11 15 6 8 1024.4 1024.2 0.0
 
Date/Time
EST
Temp
°C
App
Temp
°C
Dew
Point
°C
Rel
Hum
%
Delta-T
°C
Wind Press
QNH
hPa
Press
MSL
hPa
Rain since
9am
mm
Dir  Spd
km/h
Gust
km/h
Spd
kts
Gust
kts
27/11:30pm 10.3 7.2 3.8 64 2.9 S 9 9 5 5 1024.4 1024.2 0.0
27/11:00pm 11.0 7.9 3.5 60 3.3 S 9 13 5 7 1024.2 1024.0 0.0
27/10:30pm 11.4 8.4 3.9 60 3.4 S 9 13 5 7 1024.2 1024.0 0.0
27/10:00pm 11.7 8.7 4.0 59 3.5 SSE 9 13 5 7 1024.2 1024.0 0.0
27/09:30pm 12.2 8.8 4.2 58 3.7 SSE 11 13 6 7 1024.2 1024.0 0.0
27/09:00pm 12.6 9.6 4.3 57 3.8 S 9 13 5 7 1024.1 1023.9 0.0
27/08:30pm 12.8 9.8 4.3 56 3.9 SSE 9 13 5 7 1024.0 1023.8 0.0
27/08:00pm 13.5 10.6 4.4 54 4.2 S 9 11 5 6 1023.6 1023.4 0.0
27/07:30pm 13.6 10.7 4.5 54 4.3 SSE 9 11 5 6 1023.3 1023.1 0.0
27/07:00pm 14.8 11.9 4.5 50 4.8 S 9 9 5 5 1022.8 1022.5 0.0
27/06:30pm 15.6 12.6 4.3 47 5.3 SSE 9 11 5 6 1022.4 1022.1 0.0
27/06:00pm 16.4 13.8 4.1 44 5.8 S 7 9 4 5 1022.1 1021.8 0.0
27/05:30pm 18.1 14.6 3.6 38 6.9 S 11 13 6 7 1021.9 1021.6 0.0
27/05:00pm 19.5 15.6 3.2 34 7.7 SSW 13 19 7 10 1021.7 1021.4 0.0
27/04:30pm 20.2 16.8 3.9 34 7.9 SSW 11 20 6 11 1021.2 1021.0 0.0
27/04:00pm 20.4 17.2 3.2 32 8.2 S 9 19 5 10 1021.0 1020.8 0.0
27/03:30pm 20.4 18.2 5.2 37 7.6 SW 6 17 3 9 1020.8 1020.6 0.0
27/03:00pm 20.1 17.1 4.2 35 7.7 SSE 9 17 5 9 1020.8 1020.6 0.0
27/02:30pm 19.6 16.4 4.9 38 7.2 SSE 11 19 6 10 1020.8 1020.6 0.0
27/02:00pm 19.8 16.3 3.5 34 7.8 S 11 17 6 9 1021.2 1021.0 0.0
27/01:30pm 19.4 15.7 4.4 37 7.3 SSE 13 20 7 11 1021.8 1021.5 0.0
27/01:00pm 19.3 15.3 5.0 39 7.0 S 15 24 8 13 1022.3 1022.0 0.0
27/12:30pm 18.8 14.3 6.0 43 6.4 S 19 28 10 15 1022.8 1022.5 0.0
27/12:00pm 17.9 13.2 3.4 38 6.8 S 17 28 9 15 1023.2 1023.0 0.0
27/11:30am 17.4 12.8 6.6 49 5.4 S 20 28 11 15 1023.7 1023.5 0.0
27/11:00am 16.8 12.1 6.0 49 5.3 S 20 32 11 17 1024.1 1023.9 0.0
27/10:30am 15.6 10.1 5.8 52 4.8 S 24 33 13 18 1024.2 1024.0 0.0
27/10:00am 13.7 9.4 5.3 57 4.0 S 17 26 9 14 1024.2 1024.0 0.0
27/09:30am 13.5 9.3 5.7 59 3.7 S 17 24 9 13 1024.1 1023.9 0.0
27/09:00am 13.4 9.7 6.3 62 3.4 S 15 24 8 13 1023.8 1023.6 0.0
27/08:30am 12.1 9.2 6.6 69 2.7 SSE 11 17 6 9 1023.5 1023.3 0.0
27/08:00am 11.3 8.9 6.8 74 2.2 S 9 13 5 7 1023.3 1023.1 0.0
27/07:30am 10.9 8.5 6.8 76 2.0 S 9 13 5 7 1022.8 1022.5 0.0
27/07:00am 11.1 8.3 7.0 76 2.0 S 11 13 6 7 1022.5 1022.2 0.0
27/06:30am 11.0 9.0 7.3 78 1.8 S 7 9 4 5 1021.9 1021.6 0.0
27/06:00am 11.5 9.1 7.2 75 2.1 S 9 13 5 7 1021.5 1021.3 0.0
27/05:30am 11.7 9.3 7.0 73 2.3 S 9 11 5 6 1020.9 1020.7 0.0
27/05:00am 12.1 9.7 7.0 71 2.5 S 9 13 5 7 1021.0 1020.8 0.0
27/04:30am 12.3 9.9 7.0 70 2.6 SSW 9 13 5 7 1021.0 1020.8 0.0
27/04:00am 12.5 10.1 7.0 69 2.7 S 9 13 5 7 1020.9 1020.7 0.0
27/03:30am 12.8 10.0 7.0 68 2.8 S 11 15 6 8 1020.5 1020.3 0.0
27/03:00am 13.1 10.3 6.9 66 3.0 S 11 17 6 9 1020.4 1020.2 0.0
27/02:30am 13.3 10.9 6.9 65 3.1 S 9 13 5 7 1020.4 1020.2 0.0
27/02:00am 13.6 10.7 6.7 63 3.4 SSW 11 15 6 8 1020.9 1020.7 0.0
27/01:30am 13.6 10.9 7.4 66 3.1 SSW 11 17 6 9 1020.6 1020.4 0.0
27/01:00am 13.1 11.4 8.4 73 2.4 SSE 7 11 4 6 1020.3 1020.1 0.0
27/12:30am 13.2 11.7 8.3 72 2.5 S 6 7 3 4 1020.2 1020.0 0.0
27/12:00am 13.6 11.4 8.0 69 2.8 SSW 9 13 5 7 1020.6 1020.4 0.0
 
Date/Time
EST
Temp
°C
App
Temp
°C
Dew
Point
°C
Rel
Hum
%
Delta-T
°C
Wind Press
QNH
hPa
Press
MSL
hPa
Rain since
9am
mm
Dir  Spd
km/h
Gust
km/h
Spd
kts
Gust
kts
26/11:30pm 13.7 11.6 8.3 70 2.7 SW 9 15 5 8 1020.9 1020.7 0.0
26/11:00pm 13.4 12.5 9.3 76 2.1 ENE 4 7 2 4 1020.4 1020.2 0.0
26/10:30pm 13.8 12.7 8.4 70 2.7 SSW 4 9 2 5 1020.7 1020.5 0.0
26/10:00pm 13.7 13.6 9.4 75 2.2 CALM 0 11 0 6 1021.1 1020.9 0.0
26/09:30pm 14.0 12.0 8.6 70 2.8 SW 9 9 5 5 1020.5 1020.3 0.0
26/09:00pm 14.1 13.0 8.3 68 2.9 S 4 7 2 4 1020.3 1020.1 0.0
26/08:30pm 14.6 12.0 7.9 64 3.4 SSW 11 13 6 7 1020.6 1020.4 0.0
26/08:00pm 14.9 13.2 7.5 61 3.7 S 6 7 3 4 1020.0 1019.8 0.0
26/07:30pm 15.1 13.3 7.9 62 3.7 S 7 11 4 6 1019.5 1019.2 0.0
26/07:00pm 15.4 12.7 7.2 58 4.1 S 11 11 6 6 1019.1 1018.8 0.0
26/06:30pm 15.8 12.8 7.6 58 4.2 SSW 13 17 7 9 1019.0 1018.7 0.0
26/06:00pm 16.1 13.5 7.8 58 4.2 SSW 11 15 6 8 1018.8 1018.5 0.0
26/05:30pm 16.6 14.0 7.8 56 4.5 SSW 11 15 6 8 1018.4 1018.1 0.0
26/05:00pm 17.4 14.4 7.5 52 5.0 SSW 13 17 7 9 1018.2 1017.9 0.0
26/04:30pm 18.2 15.8 7.0 48 5.7 SSW 9 13 5 7 1018.1 1017.8 0.0
26/04:00pm 18.7 16.9 7.8 49 5.6 S 7 13 4 7 1018.2 1017.9 0.0
26/03:30pm 19.1 17.3 7.8 48 5.9 SE 7 15 4 8 1017.9 1017.6 0.0
26/03:00pm 18.6 16.3 7.4 48 5.7 S 9 13 5 7 1018.0 1017.7 0.0
26/02:30pm 18.9 16.0 6.4 44 6.3 E 11 17 6 9 1018.2 1017.9 0.0
26/02:00pm 19.2 16.6 7.6 47 6.0 SSE 11 17 6 9 1018.5 1018.2 0.0
26/01:30pm 17.9 15.0 6.7 48 5.6 ESE 11 17 6 9 1018.5 1018.2 0.0
26/01:00pm 18.3 14.8 7.4 49 5.6 SSE 15 19 8 10 1019.1 1018.8 0.0
26/12:30pm 17.9 14.6 7.9 52 5.2 SE 15 20 8 11 1019.4 1019.1 0.0
26/12:00pm 16.6 12.7 7.0 53 4.8 SE 17 22 9 12 1019.8 1019.5 0.0

Other Formats:

Comma delimited format used in spreadsheet applications
http://www.bom.gov.au/fwo/IDQ60801/IDQ60801.95351.axf

JavaScript Object Notation format (JSON) in row-major order
http://www.bom.gov.au/fwo/IDQ60801/IDQ60801.95351.json